Time;durP1;ratioP1;P1;durP2;ratioP2;P2;SDS_P1;SDS_P2;PMS_P1;PMS_P2;Temp;Humidity;BMP_temperature;BMP_pressure;BME280_temperature;BME280_humidity;BME280_pressure;Samples;Min_cycle;Max_cycle;Signal;HPM_P1;HPM_P2
2023/03/26 00:01:09;;;;;;;33.13;6.93;;;;;;;7.90;100.00;100560.81;5024635;28;19913;-74
2023/03/26 00:03:36;;;;;;;37.30;7.85;;;;;;;7.84;100.00;100558.53;5022275;28;20118;-74
2023/03/26 00:06:03;;;;;;;32.22;6.95;;;;;;;7.80;100.00;100562.38;5024066;28;20500;-74
2023/03/26 00:08:28;;;;;;;26.90;6.05;;;;;;;7.78;100.00;100559.81;5024350;28;20095;-74
2023/03/26 00:10:54;;;;;;;32.42;7.30;;;;;;;7.76;100.00;100555.50;5027245;28;20124;-74
2023/03/26 00:13:19;;;;;;;30.42;6.75;;;;;;;7.71;100.00;100553.13;5035262;28;20080;-74
2023/03/26 00:15:45;;;;;;;22.77;5.85;;;;;;;7.68;100.00;100553.34;5039674;28;20029;-74
2023/03/26 00:18:10;;;;;;;27.15;6.50;;;;;;;7.66;100.00;100549.94;5032696;28;20029;-74
2023/03/26 00:20:37;;;;;;;29.48;6.40;;;;;;;7.62;100.00;100553.75;5030519;28;20053;-74
2023/03/26 00:23:03;;;;;;;26.45;6.28;;;;;;;7.58;100.00;100553.09;5023558;28;20451;-74
2023/03/26 00:25:28;;;;;;;34.03;7.55;;;;;;;7.57;100.00;100548.72;5036797;28;20026;-74
2023/03/26 00:27:53;;;;;;;30.40;6.68;;;;;;;7.53;100.00;100544.53;5036090;28;20032;-74
2023/03/26 00:30:19;;;;;;;32.83;6.90;;;;;;;7.52;100.00;100548.16;5034832;28;20033;-74
2023/03/26 00:32:45;;;;;;;25.08;5.78;;;;;;;7.51;100.00;100535.72;5035155;28;20033;-74
2023/03/26 00:35:11;;;;;;;33.83;7.38;;;;;;;7.47;100.00;100540.44;5036687;28;20029;-74
2023/03/26 00:37:37;;;;;;;25.13;6.30;;;;;;;7.44;100.00;100540.63;5035312;28;20079;-74
2023/03/26 00:40:06;;;;;;;28.70;6.72;;;;;;;7.41;100.00;100534.59;5027083;28;20489;-74
2023/03/26 00:42:32;;;;;;;30.80;6.25;;;;;;;7.37;100.00;100539.31;5037566;28;20021;-74
2023/03/26 00:44:58;;;;;;;22.65;5.22;;;;;;;7.34;100.00;100540.34;5043276;28;20052;-74
2023/03/26 00:47:24;;;;;;;29.95;6.65;;;;;;;7.34;100.00;100531.50;5040465;28;20029;-74
2023/03/26 00:49:50;;;;;;;27.52;5.65;;;;;;;7.33;100.00;100525.28;5027346;28;20021;-74
2023/03/26 00:52:19;;;;;;;28.05;6.90;;;;;;;7.35;100.00;100530.53;5036344;28;20065;-74
2023/03/26 00:54:46;;;;;;;32.90;7.40;;;;;;;7.37;100.00;100533.97;5043380;28;20037;-74
2023/03/26 00:57:12;;;;;;;30.88;6.80;;;;;;;7.38;100.00;100516.97;5042343;28;20033;-74
2023/03/26 00:59:38;;;;;;;30.00;6.13;;;;;;;7.38;100.00;100521.44;5035642;28;20124;-74
2023/03/26 01:02:05;;;;;;;31.52;5.68;;;;;;;7.35;100.00;100512.69;5022986;28;20120;-74
2023/03/26 01:04:33;;;;;;;30.67;6.25;;;;;;;7.33;100.00;100506.56;5035824;28;20043;-74
2023/03/26 01:07:15;;;;;;;34.28;7.20;;;;;;;7.32;100.00;100509.34;5036593;28;20048;-74
2023/03/26 01:09:49;;;;;;;33.50;7.45;;;;;;;7.26;100.00;100493.69;5033644;28;20498;-74
2023/03/26 01:12:17;;;;;;;31.20;6.72;;;;;;;7.23;100.00;100493.91;5023468;28;20390;-74
2023/03/26 01:14:45;;;;;;;28.75;7.68;;;;;;;7.17;100.00;100482.66;5038573;28;20040;-74
2023/03/26 01:17:11;;;;;;;28.60;5.75;;;;;;;7.15;100.00;100491.72;5026739;28;20379;-74
2023/03/26 01:20:12;;;;;;;30.85;7.80;;;;;;;7.15;100.00;100481.03;5027887;28;20040;-74
2023/03/26 01:22:40;;;;;;;28.27;5.88;;;;;;;7.09;100.00;100476.94;5025645;28;20036;-74
2023/03/26 01:25:06;;;;;;;30.15;7.30;;;;;;;7.09;100.00;100476.09;5036485;28;20084;-74
2023/03/26 01:27:43;;;;;;;29.13;6.68;;;;;;;7.06;100.00;100460.25;5029142;28;20481;-74
2023/03/26 01:30:11;;;;;;;23.30;5.50;;;;;;;7.00;100.00;100459.69;5031337;28;20453;-74
2023/03/26 01:33:00;;;;;;;27.70;6.65;;;;;;;7.00;100.00;100450.84;5025052;28;20044;-74
2023/03/26 01:35:36;;;;;;;27.67;5.80;;;;;;;6.96;100.00;100454.66;5038514;28;20030;-74
2023/03/26 01:38:24;;;;;;;29.50;6.78;;;;;;;6.94;100.00;100448.53;5031112;28;20064;-74
2023/03/26 01:41:14;;;;;;;27.13;7.43;;;;;;;6.92;100.00;100448.63;5037945;28;20030;-74
2023/03/26 01:43:58;;;;;;;23.25;6.15;;;;;;;6.87;100.00;100450.75;5030279;28;20108;-74
2023/03/26 01:46:25;;;;;;;30.95;6.88;;;;;;;6.86;100.00;100453.53;5035630;28;20040;-74
2023/03/26 01:48:50;;;;;;;25.50;6.68;;;;;;;6.85;100.00;100441.97;5026368;28;20029;-74
2023/03/26 01:51:49;;;;;;;23.83;5.47;;;;;;;6.87;100.00;100450.75;5018944;28;20489;-74
2023/03/26 01:54:20;;;;;;;29.30;7.20;;;;;;;6.82;100.00;100436.84;5008431;28;20528;-74
2023/03/26 01:56:55;;;;;;;28.50;6.82;;;;;;;6.80;100.00;100441.44;5037513;28;20079;-74
2023/03/26 01:59:44;;;;;;;31.48;6.78;;;;;;;6.80;100.00;100433.41;5031771;28;20029;-74
2023/03/26 02:02:16;;;;;;;31.27;6.45;;;;;;;6.77;100.00;100426.44;5024338;28;20520;-74
2023/03/26 02:04:45;;;;;;;25.45;5.45;;;;;;;6.76;100.00;100413.19;5037666;28;20473;-74
2023/03/26 02:07:28;;;;;;;24.98;6.55;;;;;;;6.75;100.00;100417.69;5040298;28;20037;-74
2023/03/26 02:09:59;;;;;;;29.27;6.15;;;;;;;6.74;100.00;100415.97;5032277;28;20485;-74
2023/03/26 02:12:26;;;;;;;26.27;6.28;;;;;;;6.73;100.00;100411.56;5025126;28;20025;-74
2023/03/26 02:14:52;;;;;;;25.48;5.13;;;;;;;6.69;100.00;100407.41;5036258;28;20472;-74
2023/03/26 02:17:18;;;;;;;25.65;4.97;;;;;;;6.70;100.00;100402.91;5039991;28;20120;-74
2023/03/26 02:19:43;;;;;;;35.70;6.47;;;;;;;6.70;100.00;100394.91;5032510;28;20128;-74
2023/03/26 02:22:14;;;;;;;33.75;6.07;;;;;;;6.68;100.00;100394.13;5027477;28;20042;-74
2023/03/26 02:24:42;;;;;;;27.85;6.05;;;;;;;6.68;100.00;100395.00;5038475;28;21901;-74
2023/03/26 02:27:08;;;;;;;31.80;6.45;;;;;;;6.68;100.00;100391.44;5023041;28;20108;-74
2023/03/26 02:29:36;;;;;;;26.85;4.88;;;;;;;6.68;100.00;100388.78;5034412;28;20025;-74
2023/03/26 02:32:03;;;;;;;21.33;5.28;;;;;;;6.68;100.00;100388.78;5024656;28;20022;-74
2023/03/26 02:34:29;;;;;;;24.85;6.18;;;;;;;6.71;100.00;100388.63;5029585;28;20044;-74
2023/03/26 02:36:56;;;;;;;21.40;5.82;;;;;;;6.74;100.00;100380.41;5032101;28;20381;-74
2023/03/26 02:39:21;;;;;;;27.95;6.97;;;;;;;6.74;100.00;100383.06;5025334;28;20030;-74
2023/03/26 02:41:47;;;;;;;30.40;5.43;;;;;;;6.75;100.00;100377.63;5018357;28;20393;-74
2023/03/26 02:44:12;;;;;;;29.35;5.47;;;;;;;6.78;100.00;100373.91;5020348;28;20071;-74
2023/03/26 02:46:37;;;;;;;30.23;5.78;;;;;;;6.78;100.00;100369.41;5024540;28;20144;-74
2023/03/26 02:49:03;;;;;;;29.20;6.53;;;;;;;6.81;100.00;100366.53;5032803;28;20041;-74
2023/03/26 02:51:28;;;;;;;32.38;6.82;;;;;;;6.83;100.00;100361.94;5023874;28;20050;-74
2023/03/26 02:53:53;;;;;;;26.40;5.50;;;;;;;6.84;100.00;100349.47;5037937;28;20094;-74
2023/03/26 02:56:19;;;;;;;23.73;4.93;;;;;;;6.85;100.00;100353.81;5041914;28;20021;-74
2023/03/26 02:58:45;;;;;;;29.70;6.32;;;;;;;6.85;100.00;100350.31;5041940;28;20029;-74
2023/03/26 03:01:11;;;;;;;31.42;5.72;;;;;;;6.85;100.00;100345.81;5029345;28;20029;-74
2023/03/26 03:03:36;;;;;;;23.38;5.80;;;;;;;6.86;100.00;100341.34;5017652;28;20025;-74
2023/03/26 03:06:02;;;;;;;21.05;5.22;;;;;;;6.86;100.00;100328.00;5029566;28;20025;-74
2023/03/26 03:08:28;;;;;;;30.58;6.85;;;;;;;6.86;100.00;100320.81;5021822;28;20563;-74
2023/03/26 03:11:07;;;;;;;24.73;5.15;;;;;;;6.89;100.00;100325.97;5029487;28;20034;-74
2023/03/26 03:13:32;;;;;;;26.83;5.50;;;;;;;6.89;100.00;100315.28;5029355;28;20021;-74
2023/03/26 03:15:58;;;;;;;25.67;5.72;;;;;;;6.89;100.00;100315.28;5017430;28;20041;-74
2023/03/26 03:18:23;;;;;;;30.42;6.03;;;;;;;6.90;100.00;100311.66;5035691;28;20071;-74
2023/03/26 03:20:48;;;;;;;23.08;5.38;;;;;;;6.92;100.00;100309.72;5043245;28;20061;-74
2023/03/26 03:23:14;;;;;;;26.40;5.82;;;;;;;6.94;100.00;100304.28;5039162;28;20071;-74
2023/03/26 03:25:40;;;;;;;27.77;5.88;;;;;;;6.94;100.00;100296.25;5038612;28;20129;-74
2023/03/26 03:28:07;;;;;;;24.13;4.50;;;;;;;6.95;100.00;100301.50;5035814;28;20022;-74
2023/03/26 03:30:32;;;;;;;29.42;5.35;;;;;;;6.96;100.00;100295.22;5028976;28;20050;-74
2023/03/26 03:32:58;;;;;;;26.25;4.60;;;;;;;6.98;100.00;100297.78;5043470;28;20025;-74
2023/03/26 03:35:26;;;;;;;26.23;5.07;;;;;;;6.99;100.00;100295.00;5047827;28;20029;-74
2023/03/26 03:37:51;;;;;;;24.38;5.15;;;;;;;7.00;100.00;100290.53;5043969;28;20415;-74
2023/03/26 03:40:17;;;;;;;20.92;4.82;;;;;;;7.03;100.00;100286.78;5036183;28;20030;-74
2023/03/26 03:42:42;;;;;;;21.48;5.07;;;;;;;7.04;100.00;100278.66;5033400;28;20051;-74
2023/03/26 03:45:08;;;;;;;24.00;5.38;;;;;;;7.06;100.00;100290.09;5041310;28;20025;-74
2023/03/26 03:47:33;;;;;;;23.80;4.78;;;;;;;7.07;100.00;100282.94;5038271;28;20034;-74
2023/03/26 03:49:59;;;;;;;23.20;5.00;;;;;;;7.08;100.00;100279.31;5038006;28;20038;-74
2023/03/26 03:52:26;;;;;;;20.38;4.45;;;;;;;7.10;100.00;100275.59;5035305;28;20400;-74
2023/03/26 03:54:52;;;;;;;25.25;4.57;;;;;;;7.10;100.00;100272.91;5043786;28;20025;-74
2023/03/26 03:57:17;;;;;;;23.77;4.65;;;;;;;7.14;100.00;100270.88;5043453;28;20461;-76
2023/03/26 03:59:43;;;;;;;28.40;4.53;;;;;;;7.15;100.00;100261.91;5037548;28;20030;-74
2023/03/26 04:02:09;;;;;;;15.63;4.05;;;;;;;7.15;100.00;100256.56;5025212;28;20063;-74
2023/03/26 04:04:36;;;;;;;19.00;4.50;;;;;;;7.15;100.00;100253.88;5041104;28;20048;-74
2023/03/26 04:07:02;;;;;;;22.15;4.50;;;;;;;7.15;100.00;100251.22;5022229;28;20037;-75
2023/03/26 04:09:27;;;;;;;21.10;4.72;;;;;;;7.16;100.00;100248.44;5041510;28;20021;-75
2023/03/26 04:11:53;;;;;;;20.70;4.13;;;;;;;7.15;100.00;100236.03;5034872;28;20043;-75
2023/03/26 04:14:18;;;;;;;18.63;5.05;;;;;;;7.15;100.00;100236.03;5040722;28;20460;-75
2023/03/26 04:16:43;;;;;;;17.30;4.20;;;;;;;7.14;100.00;100228.13;5030824;28;20417;-75
2023/03/26 04:19:09;;;;;;;23.15;4.93;;;;;;;7.11;100.00;100218.47;5024138;28;20486;-75
2023/03/26 04:21:36;;;;;;;19.85;3.95;;;;;;;7.11;100.00;100213.16;5038217;28;20046;-75
2023/03/26 04:24:02;;;;;;;15.25;4.03;;;;;;;7.13;100.00;100210.38;5034968;28;20064;-75
2023/03/26 04:26:29;;;;;;;21.35;4.38;;;;;;;7.12;100.00;100206.00;5037390;28;20056;-75
2023/03/26 04:28:59;;;;;;;18.42;3.63;;;;;;;7.12;100.00;100206.84;5035874;28;20035;-74
2023/03/26 04:31:27;;;;;;;14.65;3.42;;;;;;;7.12;100.00;100197.97;5027579;28;20482;-74
2023/03/26 04:33:58;;;;;;;18.63;3.70;;;;;;;7.10;100.00;100191.88;5036755;28;20370;-74
2023/03/26 04:36:30;;;;;;;20.98;4.47;;;;;;;7.12;100.00;100189.97;5045822;28;20021;-74
2023/03/26 04:39:01;;;;;;;20.33;4.05;;;;;;;7.12;100.00;100187.28;5046087;28;20029;-74
2023/03/26 04:41:27;;;;;;;26.38;5.43;;;;;;;7.12;100.00;100181.94;5022872;28;20057;-74
2023/03/26 04:43:54;;;;;;;19.90;4.03;;;;;;;7.10;100.00;100179.38;5038648;28;20030;-74
2023/03/26 04:46:26;;;;;;;17.83;3.95;;;;;;;7.12;100.00;100172.09;5042228;28;20028;-74
2023/03/26 04:48:53;;;;;;;23.13;5.13;;;;;;;7.11;100.00;100164.19;5038070;28;20111;-74
2023/03/26 04:51:22;;;;;;;18.90;4.47;;;;;;;7.10;100.00;100158.00;5038786;28;20119;-74
2023/03/26 04:53:52;;;;;;;25.73;4.43;;;;;;;7.11;100.00;100158.84;5036993;28;20040;-74
2023/03/26 04:56:31;;;;;;;16.33;3.72;;;;;;;7.13;100.00;100159.59;5043257;28;20028;-74
2023/03/26 04:58:59;;;;;;;22.77;4.72;;;;;;;7.11;100.00;100149.00;5038524;28;20033;-74
2023/03/26 05:01:27;;;;;;;18.08;3.75;;;;;;;7.11;100.00;100148.16;5024648;28;20093;-74
2023/03/26 05:03:53;;;;;;;20.90;4.50;;;;;;;7.09;100.00;100142.94;5036212;28;20172;-74
2023/03/26 05:06:18;;;;;;;20.25;4.55;;;;;;;7.11;100.00;100141.00;5045377;28;20124;-74
2023/03/26 05:08:43;;;;;;;18.75;4.82;;;;;;;7.08;100.00;100137.69;5035559;28;20025;-74
2023/03/26 05:11:10;;;;;;;20.50;4.68;;;;;;;7.06;100.00;100131.59;5040616;28;20041;-74
2023/03/26 05:13:35;;;;;;;18.50;4.60;;;;;;;7.07;100.00;100135.97;5040500;28;20021;-75
2023/03/26 05:16:01;;;;;;;18.92;4.53;;;;;;;7.06;100.00;100131.59;5030884;28;20554;-74
2023/03/26 05:18:26;;;;;;;20.70;3.92;;;;;;;7.07;100.00;100119.94;5034790;28;20124;-74
2023/03/26 05:20:51;;;;;;;19.35;3.92;;;;;;;7.09;100.00;100118.03;5035687;28;20496;-74
2023/03/26 05:23:17;;;;;;;16.58;4.47;;;;;;;7.11;100.00;100124.97;5036685;28;20099;-74
2023/03/26 05:25:42;;;;;;;21.13;4.32;;;;;;;7.13;100.00;100115.03;5030482;28;20437;-74
2023/03/26 05:28:09;;;;;;;26.30;4.32;;;;;;;7.13;100.00;100109.69;5037064;28;20053;-74
2023/03/26 05:30:35;;;;;;;26.75;4.40;;;;;;;7.16;100.00;100111.31;5028143;28;20037;-74
2023/03/26 05:33:01;;;;;;;19.63;3.42;;;;;;;7.17;100.00;100104.97;5027894;28;20029;-74
2023/03/26 05:35:26;;;;;;;17.42;4.22;;;;;;;7.20;100.00;100104.75;5039093;28;20021;-74
2023/03/26 05:37:52;;;;;;;24.52;4.20;;;;;;;7.22;100.00;100097.50;5036399;28;20098;-74
2023/03/26 05:40:17;;;;;;;17.02;4.53;;;;;;;7.23;100.00;100099.19;5026713;28;20474;-74
2023/03/26 05:42:43;;;;;;;17.80;4.60;;;;;;;7.25;100.00;100099.09;5037716;28;20025;-74
2023/03/26 05:45:10;;;;;;;23.95;5.60;;;;;;;7.27;100.00;100095.31;5030982;28;20024;-74
2023/03/26 05:47:36;;;;;;;17.80;3.88;;;;;;;7.26;100.00;100090.97;5036200;28;20473;-75
2023/03/26 05:50:02;;;;;;;21.67;4.68;;;;;;;7.27;100.00;100079.28;5034459;28;20132;-75
2023/03/26 05:52:27;;;;;;;21.92;4.05;;;;;;;7.29;100.00;100081.84;5034800;28;20021;-75
2023/03/26 05:54:53;;;;;;;20.70;3.88;;;;;;;7.30;100.00;100073.72;5040867;28;20083;-75
2023/03/26 05:57:18;;;;;;;26.85;5.03;;;;;;;7.31;100.00;100077.28;5039845;28;20032;-75
2023/03/26 05:59:43;;;;;;;19.92;5.45;;;;;;;7.30;100.00;100071.06;5034855;28;20090;-75
2023/03/26 06:02:10;;;;;;;23.17;4.93;;;;;;;7.29;100.00;100072.03;5021192;28;20045;-75
2023/03/26 06:04:39;;;;;;;21.10;4.47;;;;;;;7.33;100.00;100069.97;5045371;28;20032;-75
2023/03/26 06:07:08;;;;;;;24.60;4.72;;;;;;;7.34;100.00;100066.34;5043766;28;20400;-75
2023/03/26 06:09:37;;;;;;;22.75;4.78;;;;;;;7.31;100.00;100064.75;5034824;28;20017;-75
2023/03/26 06:12:03;;;;;;;20.27;4.70;;;;;;;7.30;100.00;100054.16;5029349;28;20056;-75
2023/03/26 06:14:29;;;;;;;16.42;4.00;;;;;;;7.27;100.00;100047.22;5043417;28;20051;-75
2023/03/26 06:16:54;;;;;;;18.55;5.63;;;;;;;7.29;100.00;100050.66;5043894;28;20055;-75
2023/03/26 06:19:19;;;;;;;19.85;4.43;;;;;;;7.27;100.00;100047.22;5029661;28;20075;-75
2023/03/26 06:21:45;;;;;;;18.98;4.45;;;;;;;7.24;100.00;100039.44;5029956;28;20409;-75
2023/03/26 06:24:15;;;;;;;23.33;4.80;;;;;;;7.26;100.00;100053.56;5033016;28;20045;-75
2023/03/26 06:26:40;;;;;;;19.00;4.90;;;;;;;7.27;100.00;100044.53;5037188;28;20123;-75
2023/03/26 06:29:06;;;;;;;22.83;4.57;;;;;;;7.30;100.00;100040.81;5041729;28;20112;-75
2023/03/26 06:31:31;;;;;;;18.10;4.47;;;;;;;7.31;100.00;100043.38;5025950;28;20052;-75
2023/03/26 06:33:56;;;;;;;17.23;4.38;;;;;;;7.31;100.00;100038.03;5025779;28;20232;-75
2023/03/26 06:36:22;;;;;;;16.73;4.05;;;;;;;7.31;100.00;100040.69;5045646;28;20492;-75
2023/03/26 06:38:47;;;;;;;15.77;4.13;;;;;;;7.29;100.00;100037.28;5035793;28;20099;-75
2023/03/26 06:41:12;;;;;;;17.52;4.10;;;;;;;7.30;100.00;100038.97;5022928;28;20470;-75
2023/03/26 06:43:38;;;;;;;20.98;4.50;;;;;;;7.29;100.00;100039.09;5016845;28;20395;-75
2023/03/26 06:46:04;;;;;;;25.20;5.18;;;;;;;7.28;100.00;100038.25;5032530;28;20549;-75
2023/03/26 06:48:29;;;;;;;24.60;5.35;;;;;;;7.28;100.00;100046.25;5016751;28;20080;-75
2023/03/26 06:50:54;;;;;;;23.70;5.22;;;;;;;7.28;100.00;100043.59;5037164;28;20143;-75
2023/03/26 06:53:20;;;;;;;21.50;4.95;;;;;;;7.28;100.00;100038.25;5040907;28;20026;-74
2023/03/26 06:55:45;;;;;;;23.05;5.25;;;;;;;7.28;100.00;100048.94;5039051;28;20018;-75
2023/03/26 06:58:11;;;;;;;24.38;5.20;;;;;;;7.28;100.00;100045.41;5023267;28;20043;-75
2023/03/26 07:00:37;;;;;;;21.52;4.65;;;;;;;7.28;100.00;100040.91;5025964;28;20035;-75
2023/03/26 07:03:04;;;;;;;18.00;4.47;;;;;;;7.29;100.00;100039.97;5029473;28;20429;-75
2023/03/26 07:05:29;;;;;;;20.00;4.85;;;;;;;7.31;100.00;100045.19;5030176;28;20033;-75
2023/03/26 07:07:55;;;;;;;23.25;4.90;;;;;;;7.30;100.00;100041.66;5044168;28;20024;-75
2023/03/26 07:10:20;;;;;;;23.63;4.28;;;;;;;7.30;100.00;100033.63;5041944;28;20038;-75
2023/03/26 07:12:46;;;;;;;18.75;4.68;;;;;;;7.30;100.00;100033.63;5033675;28;20031;-75
2023/03/26 07:15:11;;;;;;;18.15;4.40;;;;;;;7.29;100.00;100034.63;5031382;28;20029;-75
2023/03/26 07:17:37;;;;;;;21.23;5.15;;;;;;;7.28;100.00;100035.56;5034249;28;20032;-75
2023/03/26 07:20:04;;;;;;;22.25;5.35;;;;;;;7.27;100.00;100035.69;5041599;28;20118;-75
2023/03/26 07:22:30;;;;;;;23.45;5.22;;;;;;;7.26;100.00;100029.50;5037245;28;20116;-75
2023/03/26 07:24:55;;;;;;;19.98;4.97;;;;;;;7.24;100.00;100023.41;5024786;28;20104;-75
2023/03/26 07:27:41;;;;;;;19.67;5.45;;;;;;;7.28;100.00;100026.72;5031374;28;20040;-75
2023/03/26 07:30:09;;;;;;;21.02;5.10;;;;;;;7.28;100.00;100016.88;5038653;28;20064;-75
2023/03/26 07:32:53;;;;;;;17.52;4.57;;;;;;;7.30;100.00;100016.75;5027118;28;20120;-75
2023/03/26 07:35:29;;;;;;;18.00;4.38;;;;;;;7.28;100.00;100011.53;5029498;28;20030;-75
2023/03/26 07:38:21;;;;;;;18.48;4.45;;;;;;;7.28;100.00;100011.53;5033656;28;20073;-75
2023/03/26 07:41:00;;;;;;;17.85;4.57;;;;;;;7.29;100.00;100018.59;5038333;28;20444;-75
2023/03/26 07:44:03;;;;;;;19.67;5.35;;;;;;;7.31;100.00;100016.63;5034587;28;20112;-75
2023/03/26 07:46:30;;;;;;;22.98;5.40;;;;;;;7.25;100.00;100008.22;5027775;28;20500;-75
2023/03/26 07:48:58;;;;;;;18.48;5.03;;;;;;;7.26;100.00;100001.91;5028823;28;20124;-75
2023/03/26 07:51:24;;;;;;;16.25;4.95;;;;;;;7.26;100.00;100008.13;5022384;28;20032;-75
2023/03/26 07:53:50;;;;;;;18.58;5.78;;;;;;;7.29;100.00;100004.34;5027185;28;20021;-75
2023/03/26 07:56:18;;;;;;;18.77;5.13;;;;;;;7.28;100.00;99997.31;5036689;28;20667;-75
2023/03/26 07:58:49;;;;;;;17.92;5.18;;;;;;;7.29;100.00;99999.88;5035915;28;20029;-75
2023/03/26 08:01:33;;;;;;;17.33;5.18;;;;;;;7.31;100.00;100008.63;5029509;28;20140;-75
2023/03/26 08:04:09;;;;;;;20.77;4.60;;;;;;;7.31;100.00;99997.94;5038279;28;20032;-75
2023/03/26 08:06:40;;;;;;;20.27;5.20;;;;;;;7.32;100.00;99996.09;5036270;28;20140;-75
2023/03/26 08:09:19;;;;;;;19.48;5.15;;;;;;;7.32;100.00;100002.31;5026893;28;20472;-75
2023/03/26 08:12:17;;;;;;;17.83;4.68;;;;;;;7.33;100.00;99998.66;5032924;28;20079;-75
2023/03/26 08:14:55;;;;;;;22.17;7.35;;;;;;;7.37;100.00;99998.47;5019526;28;20029;-75
2023/03/26 08:17:39;;;;;;;17.00;5.28;;;;;;;7.42;100.00;99996.28;5011281;28;20481;-75
2023/03/26 08:20:16;;;;;;;15.55;4.88;;;;;;;7.43;100.00;99995.31;4987395;28;20120;-75
2023/03/26 08:22:44;;;;;;;19.48;4.72;;;;;;;7.44;100.00;99997.03;5008772;28;20513;-75
2023/03/26 08:25:16;;;;;;;19.63;4.68;;;;;;;7.44;100.00;99991.69;5008335;28;20359;-75
2023/03/26 08:27:45;;;;;;;22.08;5.45;;;;;;;7.46;100.00;99992.41;5009666;28;20567;-75
2023/03/26 08:30:17;;;;;;;15.50;5.10;;;;;;;7.49;100.00;99986.84;4999563;28;20434;-75
2023/03/26 08:32:51;;;;;;;15.38;4.32;;;;;;;7.52;100.00;99990.13;5004633;28;20064;-75
2023/03/26 08:35:17;;;;;;;19.48;5.00;;;;;;;7.57;100.00;99984.47;5003573;28;20124;-75
2023/03/26 08:37:44;;;;;;;18.40;4.85;;;;;;;7.63;100.00;99984.00;5020228;28;20152;-75
2023/03/26 08:40:10;;;;;;;14.50;4.43;;;;;;;7.64;100.00;99983.03;5008335;28;20596;-75
2023/03/26 08:42:56;;;;;;;18.30;4.80;;;;;;;7.67;100.00;99984.59;5016640;28;20517;-75
2023/03/26 08:45:59;;;;;;;19.45;5.38;;;;;;;7.67;100.00;99985.47;5013808;28;20033;-75
2023/03/26 08:48:58;;;;;;;20.52;5.22;;;;;;;7.69;100.00;99986.19;4990436;28;20037;-75
2023/03/26 08:51:59;;;;;;;15.40;4.78;;;;;;;7.73;100.00;99980.63;5013638;28;21308;-75
2023/03/26 08:54:47;;;;;;;22.63;5.65;;;;;;;7.75;100.00;99981.38;5030954;28;20031;-75
2023/03/26 08:57:50;;;;;;;15.02;4.57;;;;;;;7.76;100.00;99978.59;5025791;28;20120;-75
2023/03/26 09:00:36;;;;;;;19.23;4.65;;;;;;;7.77;100.00;99984.78;5031487;28;20029;-75
2023/03/26 09:03:37;;;;;;;21.13;5.68;;;;;;;7.78;100.00;99975.78;5028758;28;20056;-75
2023/03/26 09:06:11;;;;;;;16.92;4.85;;;;;;;7.77;100.00;99974.91;5039770;28;20021;-75
2023/03/26 09:08:48;;;;;;;16.75;5.05;;;;;;;7.80;100.00;99980.03;5035543;28;20025;-75
2023/03/26 09:11:32;;;;;;;17.10;5.55;;;;;;;7.82;100.00;99977.28;5031924;28;20043;-75
2023/03/26 09:14:16;;;;;;;19.83;6.43;;;;;;;7.84;100.00;99975.31;5046628;28;20028;-75
2023/03/26 09:16:53;;;;;;;18.92;5.78;;;;;;;7.84;100.00;99978.84;5027592;28;20056;-75
2023/03/26 09:19:37;;;;;;;20.02;6.05;;;;;;;7.86;100.00;99982.25;5033622;28;20049;-75
2023/03/26 09:22:46;;;;;;;21.88;5.32;;;;;;;7.88;100.00;99977.63;5038764;28;20358;-75
2023/03/26 09:25:40;;;;;;;20.13;5.38;;;;;;;7.89;100.00;99978.47;5040275;28;20029;-75
2023/03/26 09:28:21;;;;;;;21.90;4.85;;;;;;;7.86;100.00;99974.25;5035536;28;20124;-75
2023/03/26 09:31:05;;;;;;;17.77;4.43;;;;;;;7.85;100.00;99967.19;5031636;28;20029;-75
2023/03/26 09:33:31;;;;;;;14.50;4.47;;;;;;;7.88;100.00;99974.13;5031191;28;20544;-75
2023/03/26 09:36:05;;;;;;;18.13;4.57;;;;;;;7.88;100.00;99971.44;5028009;28;20112;-75
2023/03/26 09:38:42;;;;;;;14.75;4.03;;;;;;;7.90;100.00;99974.84;5030103;28;20120;-75
2023/03/26 09:41:16;;;;;;;18.60;4.63;;;;;;;7.92;100.00;99972.91;5032262;28;20143;-76
2023/03/26 09:44:11;;;;;;;15.60;4.28;;;;;;;7.96;100.00;99976.22;5030237;28;20460;-76
2023/03/26 09:46:55;;;;;;;17.80;4.53;;;;;;;7.99;100.00;99973.28;5030693;28;20068;-75
2023/03/26 09:49:29;;;;;;;19.73;4.60;;;;;;;8.02;100.00;99971.25;5016062;28;20025;-76
2023/03/26 09:52:09;;;;;;;15.27;3.90;;;;;;;7.98;100.00;99977.81;5032619;28;20175;-75
2023/03/26 09:54:49;;;;;;;;;;;;;;;8.04;100.00;99971.97;5030643;28;20120;-75
2023/03/26 09:57:33;;;;;;;;;;;;;;;8.04;100.00;99981.84;5040401;28;19921;-75
2023/03/26 10:00:16;;;;;;;14.05;2.97;;;;;;;7.99;100.00;99982.16;5037219;28;19918;-75
2023/03/26 10:02:46;;;;;;;14.63;3.20;;;;;;;7.99;100.00;99984.84;5024246;28;20361;-75
2023/03/26 10:05:27;;;;;;;10.38;2.90;;;;;;;8.00;100.00;99986.56;5021521;28;21161;-75
2023/03/26 10:08:12;;;;;;;12.98;3.60;;;;;;;7.99;100.00;99982.16;5021077;28;20709;-75
2023/03/26 10:11:01;;;;;;;13.85;3.60;;;;;;;8.04;100.00;99989.84;5022262;28;20440;-75
2023/03/26 10:13:49;;;;;;;12.60;3.58;;;;;;;8.05;100.00;99988.88;5023637;28;20033;-76
2023/03/26 10:16:20;;;;;;;13.50;4.07;;;;;;;8.01;100.00;99993.63;5022661;28;20025;-76
2023/03/26 10:19:09;;;;;;;15.10;3.50;;;;;;;7.99;100.00;99990.19;5023239;28;20443;-75
2023/03/26 10:22:05;;;;;;;8.50;3.08;;;;;;;7.97;100.00;99986.78;5023633;28;20088;-75
2023/03/26 10:24:39;;;;;;;13.80;3.10;;;;;;;7.96;100.00;99989.59;5023057;28;20060;-75
2023/03/26 10:27:17;;;;;;;12.07;3.20;;;;;;;7.91;100.00;99987.25;5024262;28;20049;-76
2023/03/26 10:30:08;;;;;;;11.65;3.10;;;;;;;7.92;100.00;99993.47;5022331;28;20029;-76
2023/03/26 10:32:45;;;;;;;15.52;3.90;;;;;;;7.87;100.00;99985.78;5022888;28;20573;-75
2023/03/26 10:35:30;;;;;;;15.48;4.07;;;;;;;7.85;100.00;99993.09;5023361;28;20091;-75
2023/03/26 10:38:12;;;;;;;10.57;2.78;;;;;;;7.88;100.00;99996.38;5020502;28;20516;-75
2023/03/26 10:40:53;;;;;;;11.85;2.75;;;;;;;7.91;100.00;99997.97;5025003;28;20060;-75
2023/03/26 10:43:41;;;;;;;3.95;2.10;;;;;;;7.91;100.00;99992.63;5026330;28;20544;-75
2023/03/26 10:46:25;;;;;;;8.95;2.10;;;;;;;7.94;100.00;99996.88;5027209;28;20389;-75
2023/03/26 10:49:35;;;;;;;10.07;2.92;;;;;;;7.91;100.00;100000.63;5023587;28;20029;-76
2023/03/26 10:52:17;;;;;;;11.98;2.85;;;;;;;7.94;100.00;100003.06;5012475;28;20033;-76
2023/03/26 10:54:53;;;;;;;7.88;2.50;;;;;;;7.95;100.00;99995.91;5024576;28;20043;-75
2023/03/26 10:57:37;;;;;;;7.43;1.92;;;;;;;7.96;100.00;100006.47;5022481;28;20037;-75
2023/03/26 11:00:27;;;;;;;11.85;2.47;;;;;;;7.99;100.00;100003.56;5023343;28;20085;-75
2023/03/26 11:03:30;;;;;;;9.40;2.50;;;;;;;8.02;100.00;100003.38;5023880;28;20437;-75
2023/03/26 11:06:08;;;;;;;10.43;2.60;;;;;;;8.03;100.00;100002.38;5025238;28;20127;-75
2023/03/26 11:08:51;;;;;;;9.55;2.60;;;;;;;8.01;100.00;100009.66;5021756;28;20048;-75
2023/03/26 11:11:22;;;;;;;13.68;4.53;;;;;;;8.07;100.00;100012.84;5021163;28;20535;-75
2023/03/26 11:14:09;;;;;;;5.22;2.38;;;;;;;8.11;100.00;100015.19;5022817;28;20060;-75
2023/03/26 11:16:53;;;;;;;9.48;3.50;;;;;;;8.14;100.00;100014.94;5019090;28;20034;-75
2023/03/26 11:19:38;;;;;;;10.80;2.42;;;;;;;8.17;100.00;100019.19;5019971;28;20028;-75
2023/03/26 11:22:03;;;;;;;7.03;2.10;;;;;;;8.16;100.00;100020.19;5020292;28;20092;-75
2023/03/26 11:24:34;;;;;;;7.20;1.92;;;;;;;8.17;100.00;100019.19;5026892;28;20112;-75
2023/03/26 11:28:02;;;;;;;7.03;1.90;;;;;;;8.22;100.00;100020.53;5024229;28;20127;-75
2023/03/26 11:30:42;;;;;;;6.60;1.90;;;;;;;8.21;100.00;100026.91;4920266;29;20046;-75
2023/03/26 11:33:15;;;;;;;7.65;1.98;;;;;;;8.23;100.00;100026.78;4919453;29;20068;-75
2023/03/26 11:35:45;;;;;;;4.78;1.42;;;;;;;8.25;100.00;100032.84;4920339;29;20443;-75
2023/03/26 11:38:19;;;;;;;4.82;1.60;;;;;;;8.27;100.00;100030.91;4908130;29;20636;-75
2023/03/26 11:40:49;;;;;;;9.48;2.38;;;;;;;8.31;100.00;100035.03;4923694;29;20044;-75
2023/03/26 11:43:19;;;;;;;6.30;2.00;;;;;;;8.32;100.00;100027.88;4908609;29;20032;-75